»·PEaware :: JUS326 KGEG-KSEA

JUS326 :: KGEG-KSEA

FLIGHT INFORMATION

Flight Status: Arrived
Operator:
USA Jet
More flights by this operator :: More flights under this callsign
Pilot: Erik S. (3779)
Aircraft: BOEING 737-300
(B733)
More flights by this aircraft type
Origin: KGEG Spokane Intl
United States
Destination: KSEA Seattle-Tacoma Intl
United States
More flights between these airports :: More routes between these airports
Route: TEMPL GLASR1
File this flight plan on PilotEdge
Remarks:
Altitude:
(Current/Filed)
26,000ft
Speed:
(Current/Filed)
400kts
Departed: 21-Nov-17 09:12 AM
Arrived: 21-Nov-17 09:58 AM
Distance/Time
Traveled:
194nm/0:46
Distance/Time
To Go:
Arrived

Flight Plot

Page will automatically refresh every two minutes.

Flight plan parsing failed; only flown route is shown


Map Options




Map Legend


Flown Route
Filed Route
Departure Airport
Arrival Airport
Navaid (VOR, NDB)
Fix

Horizontal Profiles

Position Reports

Time Latitude Longitude Heading Altitude Ground
Speed
21-Nov-17 09:00 47.624345 -117.521361 91 2382ft 0kts
21-Nov-17 09:01 47.624345 -117.521361 91 2382ft 0kts
21-Nov-17 09:02 47.624345 -117.521361 91 2382ft 0kts
21-Nov-17 09:03 47.624345 -117.521361 91 2382ft 0kts
21-Nov-17 09:04 47.624345 -117.521361 91 2382ft 0kts
21-Nov-17 09:05 47.624345 -117.521361 91 2382ft 0kts
21-Nov-17 09:06 47.624345 -117.521361 91 2382ft 0kts
21-Nov-17 09:07 47.624345 -117.521361 91 2382ft 0kts
21-Nov-17 09:08 47.624345 -117.521361 91 2382ft 0kts
21-Nov-17 09:09 47.624345 -117.521361 91 2382ft 0kts
21-Nov-17 09:10 47.624540 -117.520891 358 2382ft 10kts
21-Nov-17 09:11 47.623809 -117.525958 225 2382ft 15kts
21-Nov-17 09:12 47.620342 -117.531136 225 2382ft 33kts
21-Nov-17 09:13 47.612172 -117.543492 225 2382ft 33kts
21-Nov-17 09:14 47.609394 -117.547685 225 2382ft 0kts
21-Nov-17 09:15 47.609394 -117.547685 225 2382ft 0kts
21-Nov-17 09:16 47.609538 -117.549102 312 2382ft 14kts
21-Nov-17 09:17 47.618262 -117.537625 45 2383ft 145kts
21-Nov-17 09:18 47.651694 -117.492576 39 5288ft 171kts
21-Nov-17 09:19 47.694756 -117.483303 301 7247ft 203kts
21-Nov-17 09:20 47.697403 -117.590477 270 9668ft 261kts
21-Nov-17 09:21 47.697530 -117.680634 270 11262ft 303kts
21-Nov-17 09:22 47.700118 -117.805123 270 14231ft 313kts
21-Nov-17 09:23 47.703190 -117.934459 270 17113ft 316kts
21-Nov-17 09:24 47.705948 -118.064293 270 19642ft 321kts
21-Nov-17 09:25 47.709460 -118.196835 271 21996ft 325kts
21-Nov-17 09:26 47.712480 -118.331962 271 24133ft 330kts
21-Nov-17 09:27 47.715245 -118.469053 271 26023ft 336kts
21-Nov-17 09:28 47.717964 -118.613855 271 26227ft 369kts
21-Nov-17 09:29 47.720648 -118.767011 271 26219ft 372kts
21-Nov-17 09:30 47.723141 -118.920784 270 26219ft 373kts
21-Nov-17 09:31 47.725437 -119.075376 269 26221ft 375kts
21-Nov-17 09:32 47.728061 -119.229136 269 26217ft 375kts
21-Nov-17 09:33 47.730005 -119.383610 269 26220ft 375kts
21-Nov-17 09:34 47.734374 -119.538079 273 26219ft 376kts
21-Nov-17 09:35 47.746112 -119.692939 273 26218ft 377kts
21-Nov-17 09:36 47.758081 -119.847300 273 26219ft 377kts
21-Nov-17 09:37 47.769931 -120.002088 273 26227ft 376kts
21-Nov-17 09:38 47.781707 -120.155073 273 26229ft 376kts
21-Nov-17 09:39 47.793038 -120.309376 273 26228ft 376kts
21-Nov-17 09:40 47.804215 -120.463554 272 26247ft 364kts
21-Nov-17 09:41 47.813934 -120.600613 272 26187ft 337kts
21-Nov-17 09:42 47.823375 -120.735786 272 24626ft 318kts
21-Nov-17 09:43 47.832332 -120.868517 272 22850ft 320kts
21-Nov-17 09:44 47.841014 -120.998552 271 21101ft 323kts
21-Nov-17 09:45 47.849643 -121.126680 270 19284ft 319kts
21-Nov-17 09:46 47.857754 -121.255344 268 17486ft 304kts
21-Nov-17 09:47 47.865472 -121.383568 269 15756ft 306kts
21-Nov-17 09:48 47.873346 -121.509637 269 14050ft 307kts
21-Nov-17 09:49 47.881024 -121.633934 269 12383ft 307kts
21-Nov-17 09:50 47.861108 -121.736535 223 12035ft 244kts
21-Nov-17 09:51 47.810192 -121.806518 223 12055ft 253kts
21-Nov-17 09:52 47.759924 -121.875455 231 12028ft 252kts
21-Nov-17 09:53 47.758524 -121.977904 276 10447ft 255kts
21-Nov-17 09:54 47.767138 -122.080553 276 8857ft 250kts
21-Nov-17 09:55 47.775566 -122.185925 276 6625ft 283kts
21-Nov-17 09:56 47.764945 -122.294115 218 5011ft 275kts
21-Nov-17 09:57 47.692571 -122.312268 178 4025ft 256kts
21-Nov-17 09:58 47.631164 -122.309433 180 3866ft 193kts
21-Nov-17 09:59 47.577613 -122.310102 180 2732ft 187kts
21-Nov-17 10:00 47.533844 -122.310416 180 1821ft 138kts
21-Nov-17 10:01 47.494815 -122.310719 180 1088ft 141kts
21-Nov-17 10:02 47.456034 -122.310996 179 441ft 131kts
21-Nov-17 10:03 47.439313 -122.308916 138 440ft 30kts

Navigation Log

Ident Type
Flight plan parsing failed, navigation log unavailable